createdAt,value
2019-04-21T00:03:00.000Z,14.7
2019-04-21T00:09:00.000Z,14.6
2019-04-21T00:15:00.000Z,14.5
2019-04-21T00:20:00.000Z,14.4
2019-04-21T00:25:00.000Z,14.4
2019-04-21T00:31:00.000Z,14.2
2019-04-21T00:37:00.000Z,14.0
2019-04-21T00:42:00.000Z,13.9
2019-04-21T00:48:00.000Z,13.7
2019-04-21T00:54:00.000Z,13.6
2019-04-21T01:05:00.000Z,13.4
2019-04-21T01:11:00.000Z,13.4
2019-04-21T01:17:00.000Z,13.3
2019-04-21T01:23:00.000Z,13.3
2019-04-21T01:28:00.000Z,13.3
2019-04-21T01:34:00.000Z,13.4
2019-04-21T01:39:00.000Z,13.4
2019-04-21T01:45:00.000Z,13.4
2019-04-21T01:51:00.000Z,13.4
2019-04-21T01:57:00.000Z,13.4
2019-04-21T02:03:00.000Z,13.3
2019-04-21T02:09:00.000Z,13.3
2019-04-21T02:15:00.000Z,13.2
2019-04-21T02:21:00.000Z,13.0
2019-04-21T02:26:00.000Z,13.0
2019-04-21T02:32:00.000Z,12.9
2019-04-21T02:39:00.000Z,12.9
2019-04-21T02:50:00.000Z,12.8
2019-04-21T02:57:00.000Z,12.7
2019-04-21T03:02:00.000Z,12.6
2019-04-21T03:08:00.000Z,12.4
2019-04-21T03:14:00.000Z,12.3
2019-04-21T03:21:00.000Z,12.2
2019-04-21T03:33:00.000Z,11.8
2019-04-21T03:41:00.000Z,11.6
2019-04-21T03:58:00.000Z,11.4
2019-04-21T04:17:00.000Z,11.5
2019-04-21T04:23:00.000Z,11.5
2019-04-21T04:29:00.000Z,11.5
2019-04-21T04:35:00.000Z,11.5
2019-04-21T04:42:00.000Z,11.6
2019-04-21T04:54:00.000Z,11.7
2019-04-21T05:11:00.000Z,11.7
2019-04-21T05:17:00.000Z,11.7
2019-04-21T05:24:00.000Z,11.8
2019-04-21T05:35:00.000Z,12.0
2019-04-21T05:41:00.000Z,12.1
2019-04-21T05:46:00.000Z,12.3
2019-04-21T05:52:00.000Z,12.4
2019-04-21T05:59:00.000Z,12.6
2019-04-21T06:04:00.000Z,12.8
2019-04-21T06:16:00.000Z,13.1
2019-04-21T06:22:00.000Z,13.2
2019-04-21T06:28:00.000Z,13.4
2019-04-21T06:34:00.000Z,13.6
2019-04-21T06:46:00.000Z,14.1
2019-04-21T06:51:00.000Z,14.3
2019-04-21T06:58:00.000Z,14.5
2019-04-21T07:04:00.000Z,14.8
2019-04-21T07:09:00.000Z,15.0
2019-04-21T07:21:00.000Z,15.4
2019-04-21T07:27:00.000Z,15.7
2019-04-21T07:33:00.000Z,15.9
2019-04-21T07:39:00.000Z,16.2
2019-04-21T07:45:00.000Z,16.7
2019-04-21T07:50:00.000Z,17.9
2019-04-21T07:56:00.000Z,19.1
2019-04-21T08:02:00.000Z,20.5
2019-04-21T08:08:00.000Z,21.7
2019-04-21T08:14:00.000Z,22.7
2019-04-21T08:20:00.000Z,23.5
2019-04-21T08:26:00.000Z,24.3
2019-04-21T08:37:00.000Z,24.8
2019-04-21T08:48:00.000Z,25.1
2019-04-21T08:54:00.000Z,25.4
2019-04-21T09:00:00.000Z,25.9
2019-04-21T09:06:00.000Z,26.3
2019-04-21T09:12:00.000Z,26.8
2019-04-21T09:17:00.000Z,26.8
2019-04-21T09:23:00.000Z,27.0
2019-04-21T09:29:00.000Z,27.0
2019-04-21T09:34:00.000Z,27.2
2019-04-21T09:39:00.000Z,27.3
2019-04-21T09:44:00.000Z,27.4
2019-04-21T09:50:00.000Z,27.6
2019-04-21T09:55:00.000Z,27.5
2019-04-21T10:00:00.000Z,27.2
2019-04-21T10:05:00.000Z,27.3
2019-04-21T10:10:00.000Z,27.3
2019-04-21T10:15:00.000Z,27.3
2019-04-21T10:20:00.000Z,27.3
2019-04-21T10:25:00.000Z,27.5
2019-04-21T10:30:00.000Z,27.3
2019-04-21T10:35:00.000Z,27.5
2019-04-21T10:40:00.000Z,27.4
2019-04-21T10:45:00.000Z,27.4
2019-04-21T10:50:00.000Z,27.2
2019-04-21T10:55:00.000Z,27.2
2019-04-21T11:01:00.000Z,26.9
2019-04-21T11:06:00.000Z,26.6
2019-04-21T11:11:00.000Z,26.4
2019-04-21T11:16:00.000Z,26.3
2019-04-21T11:21:00.000Z,26.0
2019-04-21T11:26:00.000Z,25.7
2019-04-21T11:31:00.000Z,25.2
2019-04-21T11:36:00.000Z,24.8
2019-04-21T11:41:00.000Z,24.3
2019-04-21T11:46:00.000Z,23.8
2019-04-21T11:51:00.000Z,23.6
2019-04-21T11:56:00.000Z,23.7
2019-04-21T12:01:00.000Z,23.7
2019-04-21T12:06:00.000Z,23.5
2019-04-21T12:11:00.000Z,23.5
2019-04-21T12:16:00.000Z,23.8
2019-04-21T12:21:00.000Z,23.9
2019-04-21T12:27:00.000Z,24.1
2019-04-21T12:32:00.000Z,24.4
2019-04-21T12:37:00.000Z,24.6
2019-04-21T12:42:00.000Z,24.6
2019-04-21T12:47:00.000Z,24.7
2019-04-21T12:52:00.000Z,25.0
2019-04-21T12:57:00.000Z,25.2
2019-04-21T13:02:00.000Z,25.4
2019-04-21T13:07:00.000Z,25.7
2019-04-21T13:12:00.000Z,25.9
2019-04-21T13:17:00.000Z,26.0
2019-04-21T13:22:00.000Z,26.1
2019-04-21T13:27:00.000Z,26.1
2019-04-21T13:32:00.000Z,26.1
2019-04-21T13:37:00.000Z,26.2
2019-04-21T13:42:00.000Z,26.2
2019-04-21T13:48:00.000Z,26.2
2019-04-21T13:53:00.000Z,26.3
2019-04-21T13:58:00.000Z,26.4
2019-04-21T14:03:00.000Z,26.1
2019-04-21T14:08:00.000Z,26.0
2019-04-21T14:13:00.000Z,26.0
2019-04-21T14:18:00.000Z,26.0
2019-04-21T14:23:00.000Z,26.1
2019-04-21T14:28:00.000Z,26.0
2019-04-21T14:33:00.000Z,25.9
2019-04-21T14:38:00.000Z,25.7
2019-04-21T14:43:00.000Z,25.4
2019-04-21T14:48:00.000Z,25.3
2019-04-21T14:53:00.000Z,25.2
2019-04-21T14:58:00.000Z,25.1
2019-04-21T15:03:00.000Z,24.8
2019-04-21T15:08:00.000Z,24.5
2019-04-21T15:13:00.000Z,24.3
2019-04-21T15:18:00.000Z,24.2
2019-04-21T15:23:00.000Z,24.0
2019-04-21T15:28:00.000Z,23.8
2019-04-21T15:33:00.000Z,23.6
2019-04-21T15:39:00.000Z,23.4
2019-04-21T15:44:00.000Z,23.2
2019-04-21T15:49:00.000Z,22.9
2019-04-21T15:54:00.000Z,22.8
2019-04-21T15:59:00.000Z,22.6
2019-04-21T16:04:00.000Z,22.5
2019-04-21T16:09:00.000Z,22.4
2019-04-21T16:14:00.000Z,22.2
2019-04-21T16:19:00.000Z,22.0
2019-04-21T16:24:00.000Z,21.8
2019-04-21T16:29:00.000Z,21.7
2019-04-21T16:34:00.000Z,21.5
2019-04-21T16:39:00.000Z,21.3
2019-04-21T16:44:00.000Z,21.2
2019-04-21T16:49:00.000Z,21.1
2019-04-21T16:54:00.000Z,21.0
2019-04-21T17:00:00.000Z,20.8
2019-04-21T17:05:00.000Z,20.7
2019-04-21T17:10:00.000Z,20.6
2019-04-21T17:15:00.000Z,20.4
2019-04-21T17:22:00.000Z,20.2
2019-04-21T17:27:00.000Z,20.1
2019-04-21T17:32:00.000Z,20.0
2019-04-21T17:37:00.000Z,19.9
2019-04-21T17:42:00.000Z,19.7
2019-04-21T17:47:00.000Z,19.6
2019-04-21T17:52:00.000Z,19.5
2019-04-21T17:58:00.000Z,19.3
2019-04-21T18:03:00.000Z,19.2
2019-04-21T18:09:00.000Z,19.1
2019-04-21T18:15:00.000Z,19.0
2019-04-21T18:20:00.000Z,18.9
2019-04-21T18:25:00.000Z,18.8
2019-04-21T18:31:00.000Z,18.7
2019-04-21T18:36:00.000Z,18.6
2019-04-21T18:41:00.000Z,18.5
2019-04-21T18:47:00.000Z,18.4
2019-04-21T18:53:00.000Z,18.3
2019-04-21T18:58:00.000Z,18.2
2019-04-21T19:03:00.000Z,18.1
2019-04-21T19:08:00.000Z,18.1
2019-04-21T19:15:00.000Z,18.0
2019-04-21T19:21:00.000Z,17.9
2019-04-21T19:32:00.000Z,17.8
2019-04-21T19:37:00.000Z,17.7
2019-04-21T19:43:00.000Z,17.6
2019-04-21T19:48:00.000Z,17.5
2019-04-21T19:54:00.000Z,17.4
2019-04-21T19:59:00.000Z,17.4
2019-04-21T20:05:00.000Z,17.3
2019-04-21T20:10:00.000Z,17.2
2019-04-21T20:21:00.000Z,17.1
2019-04-21T20:26:00.000Z,17.1
2019-04-21T20:31:00.000Z,17.0
2019-04-21T20:37:00.000Z,16.9
2019-04-21T20:42:00.000Z,16.9
2019-04-21T20:48:00.000Z,16.8
2019-04-21T20:54:00.000Z,16.7
2019-04-21T20:59:00.000Z,16.6
2019-04-21T21:05:00.000Z,16.5
2019-04-21T21:10:00.000Z,16.3
2019-04-21T21:16:00.000Z,16.2
2019-04-21T21:22:00.000Z,16.1
2019-04-21T21:28:00.000Z,16.0
2019-04-21T21:33:00.000Z,15.9
2019-04-21T21:39:00.000Z,15.8
2019-04-21T21:45:00.000Z,15.8
2019-04-21T21:50:00.000Z,15.7
2019-04-21T21:56:00.000Z,15.5
2019-04-21T22:01:00.000Z,15.5
2019-04-21T22:06:00.000Z,15.4
2019-04-21T22:11:00.000Z,15.3
2019-04-21T22:16:00.000Z,15.1
2019-04-21T22:22:00.000Z,15.0
2019-04-21T22:27:00.000Z,14.9
2019-04-21T22:32:00.000Z,14.8
2019-04-21T22:38:00.000Z,14.7
2019-04-21T22:43:00.000Z,14.7
2019-04-21T22:48:00.000Z,14.7
2019-04-21T22:54:00.000Z,14.7
2019-04-21T22:59:00.000Z,14.7
2019-04-21T23:04:00.000Z,14.7
2019-04-21T23:09:00.000Z,14.7
2019-04-21T23:14:00.000Z,14.7
2019-04-21T23:25:00.000Z,14.6
2019-04-21T23:31:00.000Z,14.6
2019-04-21T23:37:00.000Z,14.6
2019-04-21T23:42:00.000Z,14.6
2019-04-21T23:47:00.000Z,14.5
2019-04-21T23:53:00.000Z,14.4
2019-04-21T23:58:00.000Z,14.4
